Time;durP1;ratioP1;P1;durP2;ratioP2;P2;SDS_P1;SDS_P2;PMS_P1;PMS_P2;Temp;Humidity;BMP_temperature;BMP_pressure;BME280_temperature;BME280_humidity;BME280_pressure;Samples;Min_cycle;Max_cycle;Signal;HPM_P1;HPM_P2
2022/08/24 00:01:04;;;;;;;3.75;3.03;;;;;;;;;;5155026;27;20023;-58
2022/08/24 00:03:30;;;;;;;3.85;3.20;;;;;;;;;;5155583;27;20019;-59
2022/08/24 00:05:56;;;;;;;3.47;2.85;;;;;;;;;;5154650;27;20022;-58
2022/08/24 00:08:22;;;;;;;5.53;2.88;;;;;;;;;;5155008;27;20027;-59
2022/08/24 00:10:48;;;;;;;6.00;3.55;;;;;;;;;;5155231;27;20019;-59
2022/08/24 00:13:15;;;;;;;4.70;2.83;;;;;;;;;;5154925;27;20356;-58
2022/08/24 00:15:41;;;;;;;3.38;2.90;;;;;;;;;;5154831;27;20035;-59
2022/08/24 00:18:07;;;;;;;2.92;2.20;;;;;;;;;;5155734;27;20022;-58
2022/08/24 00:20:34;;;;;;;3.10;2.47;;;;;;;;;;5158596;27;20030;-58
2022/08/24 00:23:00;;;;;;;2.90;2.60;;;;;;;;;;5159078;27;20356;-59
2022/08/24 00:25:26;;;;;;;3.35;2.90;;;;;;;;;;5158398;27;20102;-58
2022/08/24 00:27:52;;;;;;;5.32;2.55;;;;;;;;;;5158466;27;20046;-58
2022/08/24 00:30:19;;;;;;;3.97;2.88;;;;;;;;;;5158321;27;20018;-58
2022/08/24 00:32:45;;;;;;;3.38;2.78;;;;;;;;;;5158203;27;20031;-58
2022/08/24 00:35:12;;;;;;;3.75;2.55;;;;;;;;;;5158327;27;20037;-58
2022/08/24 00:37:38;;;;;;;3.15;2.42;;;;;;;;;;5158506;27;20019;-59
2022/08/24 00:40:05;;;;;;;2.58;1.98;;;;;;;;;;5158193;27;20033;-58
2022/08/24 00:42:32;;;;;;;4.15;2.42;;;;;;;;;;5158013;27;20460;-58
2022/08/24 00:44:58;;;;;;;4.93;3.15;;;;;;;;;;5158412;27;20022;-58
2022/08/24 00:47:26;;;;;;;2.80;2.50;;;;;;;;;;5158843;27;20026;-59
2022/08/24 00:49:53;;;;;;;4.85;3.03;;;;;;;;;;5158799;27;20015;-58
2022/08/24 00:52:38;;;;;;;3.58;3.13;;;;;;;;;;5158258;27;20455;-59
2022/08/24 00:55:14;;;;;;;8.63;2.88;;;;;;;;;;5157990;27;20023;-58
2022/08/24 00:57:42;;;;;;;4.15;3.50;;;;;;;;;;5158434;27;20023;-58
2022/08/24 01:00:13;;;;;;;3.70;2.60;;;;;;;;;;5158102;27;20512;-58
2022/08/24 01:02:42;;;;;;;3.22;2.20;;;;;;;;;;5158587;27;20031;-58
2022/08/24 01:05:10;;;;;;;3.25;2.28;;;;;;;;;;5157655;27;20022;-58
2022/08/24 01:07:37;;;;;;;4.03;2.85;;;;;;;;;;5157894;27;20420;-58
2022/08/24 01:10:08;;;;;;;4.32;2.28;;;;;;;;;;5157649;27;20023;-59
2022/08/24 01:12:35;;;;;;;3.95;2.90;;;;;;;;;;5157490;27;20023;-59
2022/08/24 01:15:02;;;;;;;2.95;2.33;;;;;;;;;;5158346;27;20042;-59
2022/08/24 01:20:13;;;;;;;5.70;2.95;;;;;;;;;;5157482;27;20041;-58
2022/08/24 01:22:52;;;;;;;4.07;2.88;;;;;;;;;;5157849;27;20030;-58
2022/08/24 01:25:18;;;;;;;4.47;3.30;;;;;;;;;;5157581;27;20101;-58
2022/08/24 01:27:45;;;;;;;3.80;2.58;;;;;;;;;;5157269;27;20023;-58
2022/08/24 01:30:12;;;;;;;3.95;2.80;;;;;;;;;;5157029;27;20379;-58
2022/08/24 01:32:39;;;;;;;4.13;2.65;;;;;;;;;;5157350;27;20030;-59
2022/08/24 01:35:06;;;;;;;3.80;3.10;;;;;;;;;;5157455;27;20042;-58
2022/08/24 01:37:33;;;;;;;3.55;2.88;;;;;;;;;;5157056;27;20098;-58
2022/08/24 01:39:59;;;;;;;6.03;3.83;;;;;;;;;;5157269;27;20080;-58
2022/08/24 01:42:28;;;;;;;5.07;3.20;;;;;;;;;;5157400;27;20055;-58
2022/08/24 01:44:54;;;;;;;3.80;3.20;;;;;;;;;;5157773;27;20462;-58
2022/08/24 01:47:20;;;;;;;3.75;3.03;;;;;;;;;;5156903;27;20019;-58
2022/08/24 01:49:47;;;;;;;4.53;3.47;;;;;;;;;;5156829;27;20452;-58
2022/08/24 01:52:17;;;;;;;4.65;3.70;;;;;;;;;;5157333;27;20118;-58
2022/08/24 01:54:43;;;;;;;4.05;3.22;;;;;;;;;;5157329;27;20019;-58
2022/08/24 01:57:09;;;;;;;4.70;3.78;;;;;;;;;;5157193;27;20416;-58
2022/08/24 01:59:35;;;;;;;5.60;3.17;;;;;;;;;;5156632;27;20456;-58
2022/08/24 02:02:04;;;;;;;5.00;3.60;;;;;;;;;;5156868;27;20019;-58
2022/08/24 02:04:29;;;;;;;5.88;3.88;;;;;;;;;;5156911;27;20037;-58
2022/08/24 02:06:55;;;;;;;7.10;4.28;;;;;;;;;;5156756;27;20026;-58
2022/08/24 02:09:22;;;;;;;4.57;4.15;;;;;;;;;;5156463;27;20025;-58
2022/08/24 02:11:48;;;;;;;5.30;3.88;;;;;;;;;;5156691;27;20050;-58
2022/08/24 02:14:14;;;;;;;5.50;4.55;;;;;;;;;;5156035;27;20594;-58
2022/08/24 02:16:40;;;;;;;5.95;5.35;;;;;;;;;;5156353;27;20054;-59
2022/08/24 02:19:07;;;;;;;6.15;5.07;;;;;;;;;;5156297;27;20019;-58
2022/08/24 02:21:34;;;;;;;5.15;4.65;;;;;;;;;;5156740;27;20023;-58
2022/08/24 02:24:00;;;;;;;10.63;5.47;;;;;;;;;;5157010;27;20113;-58
2022/08/24 02:26:26;;;;;;;6.65;4.72;;;;;;;;;;5156176;27;20463;-58
2022/08/24 02:28:52;;;;;;;5.75;4.20;;;;;;;;;;5156053;27;20022;-59
2022/08/24 02:31:18;;;;;;;4.53;4.13;;;;;;;;;;5155988;27;20022;-58
2022/08/24 02:33:44;;;;;;;5.53;4.15;;;;;;;;;;5156520;27;20095;-58
2022/08/24 02:36:11;;;;;;;5.80;4.55;;;;;;;;;;5155986;27;20031;-58
2022/08/24 02:38:37;;;;;;;5.03;4.53;;;;;;;;;;5155931;27;20031;-58
2022/08/24 02:41:03;;;;;;;6.13;5.22;;;;;;;;;;5155056;27;20368;-58
2022/08/24 02:43:29;;;;;;;8.00;5.03;;;;;;;;;;5156093;27;20023;-58
2022/08/24 02:45:55;;;;;;;5.82;5.13;;;;;;;;;;5156124;27;20022;-58
2022/08/24 02:48:21;;;;;;;5.45;4.45;;;;;;;;;;5156060;27;20023;-58
2022/08/24 02:50:48;;;;;;;8.43;4.43;;;;;;;;;;5155653;27;20058;-58
2022/08/24 02:53:15;;;;;;;7.82;4.70;;;;;;;;;;5155566;27;20119;-58
2022/08/24 02:55:41;;;;;;;5.32;4.45;;;;;;;;;;5155730;27;20058;-58
2022/08/24 02:58:08;;;;;;;5.88;4.60;;;;;;;;;;5155677;27;20092;-58
2022/08/24 03:00:35;;;;;;;4.53;3.83;;;;;;;;;;5155649;27;20026;-58
2022/08/24 03:03:01;;;;;;;11.98;4.72;;;;;;;;;;5155842;27;20027;-58
2022/08/24 03:05:28;;;;;;;4.68;4.25;;;;;;;;;;5155783;27;20368;-58
2022/08/24 03:07:54;;;;;;;4.93;4.45;;;;;;;;;;5155802;27;20030;-58
2022/08/24 03:10:20;;;;;;;6.57;4.53;;;;;;;;;;5155522;27;20049;-58
2022/08/24 03:12:47;;;;;;;4.65;4.10;;;;;;;;;;5155364;27;20062;-58
2022/08/24 03:15:13;;;;;;;3.92;3.42;;;;;;;;;;5155486;27;20035;-58
2022/08/24 03:17:40;;;;;;;6.28;4.40;;;;;;;;;;5156210;27;20106;-58
2022/08/24 03:20:09;;;;;;;6.32;4.68;;;;;;;;;;5155714;27;20022;-58
2022/08/24 03:22:35;;;;;;;6.68;4.50;;;;;;;;;;5155305;27;20044;-58
2022/08/24 03:25:01;;;;;;;8.95;5.43;;;;;;;;;;5155643;27;20098;-58
2022/08/24 03:27:27;;;;;;;6.05;4.43;;;;;;;;;;5155081;27;20023;-58
2022/08/24 03:29:52;;;;;;;6.32;4.18;;;;;;;;;;5155904;27;20454;-58
2022/08/24 03:32:19;;;;;;;4.47;4.07;;;;;;;;;;5154894;27;20019;-58
2022/08/24 03:34:45;;;;;;;6.45;4.65;;;;;;;;;;5155870;27;20114;-58
2022/08/24 03:37:11;;;;;;;5.68;5.13;;;;;;;;;;5155492;27;20023;-58
2022/08/24 03:39:37;;;;;;;4.63;4.20;;;;;;;;;;5155834;27;20014;-58
2022/08/24 03:42:03;;;;;;;5.15;4.65;;;;;;;;;;5156028;27;20068;-58
2022/08/24 03:44:29;;;;;;;6.00;4.70;;;;;;;;;;5155340;27;20475;-58
2022/08/24 03:46:55;;;;;;;5.78;4.97;;;;;;;;;;5155527;27;20115;-58
2022/08/24 03:49:21;;;;;;;7.22;4.75;;;;;;;;;;5155240;27;20370;-58
2022/08/24 03:51:48;;;;;;;4.90;4.30;;;;;;;;;;5155654;27;20047;-58
2022/08/24 03:54:14;;;;;;;4.95;4.45;;;;;;;;;;5159955;27;20363;-58
2022/08/24 03:56:40;;;;;;;6.75;5.88;;;;;;;;;;5159593;27;20023;-58
2022/08/24 03:59:08;;;;;;;5.78;5.22;;;;;;;;;;5159351;27;20022;-58
2022/08/24 04:01:33;;;;;;;4.63;4.15;;;;;;;;;;5159532;27;20045;-58
2022/08/24 04:04:00;;;;;;;7.18;4.43;;;;;;;;;;5159069;27;20456;-58
2022/08/24 04:06:26;;;;;;;5.60;4.35;;;;;;;;;;5159759;27;20019;-58
2022/08/24 04:08:52;;;;;;;4.47;4.07;;;;;;;;;;5158899;27;20376;-58
2022/08/24 04:11:19;;;;;;;5.22;4.57;;;;;;;;;;5158799;27;20046;-58
2022/08/24 04:13:46;;;;;;;4.93;4.43;;;;;;;;;;5158809;27;20391;-58
2022/08/24 04:16:14;;;;;;;5.35;4.78;;;;;;;;;;5159249;27;20015;-58
2022/08/24 04:18:40;;;;;;;5.47;4.50;;;;;;;;;;5158706;27;20045;-58
2022/08/24 04:21:14;;;;;;;5.53;4.90;;;;;;;;;;5159203;27;20025;-58
2022/08/24 04:23:41;;;;;;;5.10;4.10;;;;;;;;;;5158667;27;20453;-58
2022/08/24 04:26:06;;;;;;;6.93;5.53;;;;;;;;;;5158632;27;20083;-58
2022/08/24 04:28:32;;;;;;;5.55;4.88;;;;;;;;;;5158507;27;20027;-58
2022/08/24 04:30:59;;;;;;;6.00;4.90;;;;;;;;;;5158455;27;20019;-58
2022/08/24 04:33:25;;;;;;;5.88;5.28;;;;;;;;;;5158932;27;20031;-58
2022/08/24 04:35:51;;;;;;;6.72;4.88;;;;;;;;;;5158002;27;20408;-58
2022/08/24 04:38:18;;;;;;;5.47;4.47;;;;;;;;;;5158376;27;20080;-58
2022/08/24 04:40:45;;;;;;;5.20;4.75;;;;;;;;;;5158762;27;20033;-58
2022/08/24 04:43:12;;;;;;;5.43;4.75;;;;;;;;;;5158137;27;20054;-58
2022/08/24 04:45:39;;;;;;;9.02;5.18;;;;;;;;;;5158693;27;20018;-58
2022/08/24 04:48:05;;;;;;;5.30;4.72;;;;;;;;;;5158140;27;20110;-58
2022/08/24 04:50:34;;;;;;;5.60;5.10;;;;;;;;;;5157996;27;20085;-58
2022/08/24 04:53:00;;;;;;;5.05;4.55;;;;;;;;;;5157993;27;20398;-58
2022/08/24 04:55:26;;;;;;;5.78;5.05;;;;;;;;;;5158567;27;20038;-58
2022/08/24 04:57:52;;;;;;;6.75;5.88;;;;;;;;;;5158003;27;20123;-59
2022/08/24 05:00:18;;;;;;;6.95;5.18;;;;;;;;;;5158479;27;20080;-58
2022/08/24 05:02:44;;;;;;;6.00;4.75;;;;;;;;;;5157895;27;20027;-58
2022/08/24 05:05:10;;;;;;;5.40;4.60;;;;;;;;;;5156853;27;20025;-58
2022/08/24 05:07:36;;;;;;;6.93;4.93;;;;;;;;;;5157777;27;20030;-58
2022/08/24 05:10:03;;;;;;;5.72;5.03;;;;;;;;;;5157745;27;20026;-58
2022/08/24 05:12:30;;;;;;;7.25;5.18;;;;;;;;;;5157321;27;20019;-58
2022/08/24 05:14:56;;;;;;;5.75;4.93;;;;;;;;;;5158225;27;20027;-58
2022/08/24 05:17:22;;;;;;;6.40;4.80;;;;;;;;;;5157549;27;20356;-58
2022/08/24 05:19:49;;;;;;;7.70;5.38;;;;;;;;;;5157187;27;20054;-58
2022/08/24 05:22:15;;;;;;;5.90;4.88;;;;;;;;;;5157440;27;20030;-58
2022/08/24 05:24:41;;;;;;;5.28;4.78;;;;;;;;;;5157464;27;20071;-59
2022/08/24 05:27:07;;;;;;;5.97;5.07;;;;;;;;;;5157320;27;20054;-58
2022/08/24 05:29:33;;;;;;;5.78;4.07;;;;;;;;;;5157047;27;20051;-58
2022/08/24 05:32:00;;;;;;;6.38;5.38;;;;;;;;;;5156972;27;20440;-58
2022/08/24 05:34:26;;;;;;;11.00;5.20;;;;;;;;;;5157620;27;20027;-58
2022/08/24 05:36:52;;;;;;;6.13;5.22;;;;;;;;;;5157753;27;20038;-58
2022/08/24 05:39:18;;;;;;;5.90;5.38;;;;;;;;;;5157048;27;20502;-58
2022/08/24 05:41:45;;;;;;;7.07;5.57;;;;;;;;;;5157245;27;20027;-58
2022/08/24 05:44:12;;;;;;;4.72;4.22;;;;;;;;;;5157135;27;20420;-58
2022/08/24 05:46:38;;;;;;;7.40;4.90;;;;;;;;;;5157004;27;20103;-58
2022/08/24 05:49:04;;;;;;;5.68;4.68;;;;;;;;;;5156911;27;20019;-58
2022/08/24 05:51:31;;;;;;;8.30;4.93;;;;;;;;;;5157358;27;20054;-58
2022/08/24 05:53:58;;;;;;;5.25;4.38;;;;;;;;;;5157529;27;20368;-58
2022/08/24 05:56:24;;;;;;;4.65;3.72;;;;;;;;;;5156666;27;20038;-58
2022/08/24 05:58:50;;;;;;;5.60;4.55;;;;;;;;;;5157047;27;20023;-58
2022/08/24 06:01:18;;;;;;;6.70;4.75;;;;;;;;;;5156727;27;20029;-58
2022/08/24 06:03:44;;;;;;;6.00;5.00;;;;;;;;;;5156647;27;20083;-58
2022/08/24 06:06:10;;;;;;;7.97;4.47;;;;;;;;;;5156563;27;20364;-58
2022/08/24 06:08:38;;;;;;;4.60;4.00;;;;;;;;;;5156485;27;20102;-58
2022/08/24 06:11:04;;;;;;;4.80;4.10;;;;;;;;;;5156463;27;20027;-58
2022/08/24 06:13:31;;;;;;;5.28;4.65;;;;;;;;;;5156442;27;20027;-58
2022/08/24 06:16:08;;;;;;;5.28;4.55;;;;;;;;;;5156634;27;20030;-58
2022/08/24 06:18:35;;;;;;;5.10;4.60;;;;;;;;;;5156363;27;20458;-58
2022/08/24 06:21:08;;;;;;;4.20;3.42;;;;;;;;;;5156260;27;20376;-58
2022/08/24 06:23:34;;;;;;;5.22;4.32;;;;;;;;;;5157175;27;20155;-59
2022/08/24 06:28:45;;;;;;;5.05;4.55;;;;;;;;;;5156276;27;20041;-59
2022/08/24 06:31:11;;;;;;;6.97;4.85;;;;;;;;;;5155868;27;20027;-59
2022/08/24 06:33:37;;;;;;;6.22;5.22;;;;;;;;;;5156092;27;20467;-58
2022/08/24 06:36:03;;;;;;;7.25;4.70;;;;;;;;;;5156029;27;20067;-59
2022/08/24 06:38:29;;;;;;;4.45;3.78;;;;;;;;;;5155976;27;20023;-58
2022/08/24 06:40:55;;;;;;;5.65;5.05;;;;;;;;;;5155913;27;20110;-58
2022/08/24 06:43:23;;;;;;;12.13;4.82;;;;;;;;;;5156407;27;20022;-58
2022/08/24 06:45:49;;;;;;;4.47;3.80;;;;;;;;;;5156425;27;20044;-58
2022/08/24 06:48:15;;;;;;;5.15;3.88;;;;;;;;;;5155554;27;20041;-59
2022/08/24 06:50:41;;;;;;;6.45;4.03;;;;;;;;;;5155699;27;20043;-58
2022/08/24 06:53:07;;;;;;;4.57;4.03;;;;;;;;;;5155463;27;20092;-58
2022/08/24 06:55:33;;;;;;;5.57;4.22;;;;;;;;;;5155845;27;20026;-59
2022/08/24 06:58:01;;;;;;;4.32;3.63;;;;;;;;;;5156505;27;20062;-58
2022/08/24 07:00:29;;;;;;;3.95;3.55;;;;;;;;;;5156099;27;20022;-59
2022/08/24 07:02:55;;;;;;;4.80;4.05;;;;;;;;;;5155645;27;20034;-58
2022/08/24 07:05:21;;;;;;;6.60;4.00;;;;;;;;;;5155619;27;20020;-58
2022/08/24 07:07:47;;;;;;;3.63;2.97;;;;;;;;;;5156130;27;20021;-58
2022/08/24 07:10:13;;;;;;;5.50;3.55;;;;;;;;;;5156090;27;20507;-59
2022/08/24 07:12:39;;;;;;;4.30;3.72;;;;;;;;;;5155758;27;20023;-58
2022/08/24 07:15:05;;;;;;;5.20;3.55;;;;;;;;;;5155195;27;20050;-59
2022/08/24 07:17:31;;;;;;;3.83;3.20;;;;;;;;;;5156099;27;20054;-58
2022/08/24 07:19:57;;;;;;;6.55;3.50;;;;;;;;;;5155475;27;20059;-59
2022/08/24 07:22:23;;;;;;;5.20;3.90;;;;;;;;;;5156000;27;20364;-59
2022/08/24 07:24:49;;;;;;;5.28;4.47;;;;;;;;;;5156044;27;20031;-59
2022/08/24 07:27:15;;;;;;;5.07;3.30;;;;;;;;;;5156881;27;20023;-59
2022/08/24 07:29:41;;;;;;;4.43;3.95;;;;;;;;;;5160203;27;20015;-59
2022/08/24 07:32:09;;;;;;;4.93;4.43;;;;;;;;;;5159884;27;20029;-59
2022/08/24 07:34:36;;;;;;;6.45;3.08;;;;;;;;;;5160201;27;20031;-59
2022/08/24 07:37:02;;;;;;;5.22;4.47;;;;;;;;;;5159476;27;20033;-59
2022/08/24 07:39:29;;;;;;;5.20;3.80;;;;;;;;;;5159462;27;20440;-59
2022/08/24 07:41:56;;;;;;;5.22;4.05;;;;;;;;;;5159598;27;20079;-59
2022/08/24 07:44:22;;;;;;;10.00;4.15;;;;;;;;;;5160385;27;20023;-59
2022/08/24 07:46:48;;;;;;;5.15;3.45;;;;;;;;;;5159329;27;20019;-59
2022/08/24 07:49:14;;;;;;;4.88;3.33;;;;;;;;;;5159160;27;20023;-59
2022/08/24 07:51:40;;;;;;;4.45;3.08;;;;;;;;;;5159026;27;20137;-59
2022/08/24 07:54:06;;;;;;;3.95;3.55;;;;;;;;;;5159171;27;20035;-59
2022/08/24 07:56:33;;;;;;;4.72;3.65;;;;;;;;;;5158933;27;20031;-59
2022/08/24 07:58:59;;;;;;;3.75;2.88;;;;;;;;;;5159532;27;20131;-59
2022/08/24 08:01:25;;;;;;;3.70;2.83;;;;;;;;;;5158716;27;20367;-59
2022/08/24 08:03:52;;;;;;;3.95;2.83;;;;;;;;;;5159511;27;20159;-59
2022/08/24 08:06:18;;;;;;;3.30;2.58;;;;;;;;;;5158463;27;20581;-59
2022/08/24 08:08:45;;;;;;;3.83;2.33;;;;;;;;;;5159308;27;20062;-59
2022/08/24 08:11:11;;;;;;;6.22;2.53;;;;;;;;;;5158774;27;20023;-59
2022/08/24 08:13:38;;;;;;;4.30;2.50;;;;;;;;;;5158936;27;20035;-59
2022/08/24 08:16:04;;;;;;;2.72;2.15;;;;;;;;;;5158587;27;20030;-59
2022/08/24 08:18:30;;;;;;;2.53;1.95;;;;;;;;;;5159176;27;20109;-59
2022/08/24 08:20:56;;;;;;;3.65;2.65;;;;;;;;;;5158388;27;20102;-59
2022/08/24 08:26:12;;;;;;;3.25;1.80;;;;;;;;;;5158867;27;20486;-59
2022/08/24 08:28:38;;;;;;;2.40;1.88;;;;;;;;;;5159088;27;20051;-59
2022/08/24 08:31:05;;;;;;;2.47;1.80;;;;;;;;;;5158937;27;20027;-59
2022/08/24 08:33:31;;;;;;;3.85;1.98;;;;;;;;;;5158840;27;20027;-59
2022/08/24 08:36:03;;;;;;;4.63;2.60;;;;;;;;;;5159032;27;20027;-58
2022/08/24 08:38:29;;;;;;;2.70;1.95;;;;;;;;;;5156967;27;20413;-59
2022/08/24 08:41:06;;;;;;;2.40;1.85;;;;;;;;;;5158108;27;20019;-59
2022/08/24 08:43:56;;;;;;;3.85;2.03;;;;;;;;;;5158131;27;20019;-58
2022/08/24 08:46:46;;;;;;;2.22;1.52;;;;;;;;;;5158769;27;20023;-59
2022/08/24 08:49:12;;;;;;;;;;;;;;;;;;5158850;27;20027;-59
2022/08/24 08:51:51;;;;;;;6.28;1.58;;;;;;;;;;5158751;27;20336;-59
2022/08/24 08:54:49;;;;;;;2.35;1.40;;;;;;;;;;5158129;27;20418;-59
2022/08/24 08:57:34;;;;;;;3.03;1.70;;;;;;;;;;5123193;27;20035;-59
2022/08/24 09:00:05;;;;;;;4.05;1.80;;;;;;;;;;5158394;27;20014;-59
2022/08/24 09:02:41;;;;;;;3.40;1.80;;;;;;;;;;5158447;27;20087;-59
2022/08/24 09:05:25;;;;;;;2.15;1.60;;;;;;;;;;5157831;27;20019;-58
2022/08/24 09:08:10;;;;;;;4.07;1.83;;;;;;;;;;5158283;27;20019;-59
2022/08/24 09:10:55;;;;;;;2.67;1.88;;;;;;;;;;5157730;27;20098;-59
2022/08/24 09:13:47;;;;;;;3.20;1.90;;;;;;;;;;5157797;27;20056;-59
2022/08/24 09:16:32;;;;;;;2.55;1.98;;;;;;;;;;5155305;27;20034;-59
2022/08/24 09:19:21;;;;;;;3.33;1.95;;;;;;;;;;5157494;27;20444;-59
2022/08/24 09:21:56;;;;;;;1.90;1.40;;;;;;;;;;5149097;27;20031;-59
2022/08/24 09:24:40;;;;;;;2.78;1.90;;;;;;;;;;5157506;27;20151;-59
2022/08/24 09:27:12;;;;;;;3.03;2.03;;;;;;;;;;5157348;27;20050;-59
2022/08/24 09:29:38;;;;;;;5.60;1.88;;;;;;;;;;5157743;27;20027;-59
2022/08/24 09:32:07;;;;;;;1.90;1.38;;;;;;;;;;5157787;27;20511;-59
2022/08/24 09:34:35;;;;;;;2.55;1.40;;;;;;;;;;5157471;27;20030;-59
2022/08/24 09:37:19;;;;;;;2.40;1.30;;;;;;;;;;5157166;27;20061;-59
2022/08/24 09:40:00;;;;;;;2.45;1.50;;;;;;;;;;5157606;27;20049;-59
2022/08/24 09:42:26;;;;;;;;;;;;;;;;;;5157973;27;20109;-59
2022/08/24 09:44:58;;;;;;;2.72;1.75;;;;;;;;;;5157640;27;20372;-59
2022/08/24 09:47:48;;;;;;;4.13;1.77;;;;;;;;;;5156546;27;20413;-59
2022/08/24 09:50:17;;;;;;;2.20;1.35;;;;;;;;;;5156892;27;20341;-59
2022/08/24 09:53:02;;;;;;;3.38;1.95;;;;;;;;;;5157065;27;20034;-59
2022/08/24 09:55:31;;;;;;;2.38;1.60;;;;;;;;;;5155534;27;20022;-59
2022/08/24 09:57:57;;;;;;;2.40;1.60;;;;;;;;;;5156801;27;20031;-59
2022/08/24 10:00:42;;;;;;;2.45;1.27;;;;;;;;;;5156739;27;20109;-59
2022/08/24 10:03:27;;;;;;;2.25;1.58;;;;;;;;;;5156509;27;20070;-59
2022/08/24 10:06:22;;;;;;;2.95;1.52;;;;;;;;;;5156288;27;20376;-59
2022/08/24 10:09:00;;;;;;;2.17;1.65;;;;;;;;;;5142973;27;20472;-59
2022/08/24 10:11:32;;;;;;;2.58;1.33;;;;;;;;;;5157058;27;20050;-59
2022/08/24 10:14:10;;;;;;;3.08;1.50;;;;;;;;;;5156712;27;20452;-60
2022/08/24 10:16:37;;;;;;;8.07;1.73;;;;;;;;;;5157194;27;20015;-60
2022/08/24 10:19:06;;;;;;;2.30;1.67;;;;;;;;;;5156232;27;20150;-60
2022/08/24 10:21:38;;;;;;;1.98;1.48;;;;;;;;;;5156209;27;20022;-60
2022/08/24 10:24:12;;;;;;;3.22;1.73;;;;;;;;;;5156297;27;20375;-60
2022/08/24 10:27:10;;;;;;;1.98;1.42;;;;;;;;;;5156061;27;20057;-60
2022/08/24 10:29:36;;;;;;;1.80;1.27;;;;;;;;;;5121458;27;20037;-60
2022/08/24 10:32:11;;;;;;;2.75;1.40;;;;;;;;;;5156056;27;20422;-60
2022/08/24 10:34:45;;;;;;;2.22;1.50;;;;;;;;;;5156408;27;20038;-60
2022/08/24 10:37:11;;;;;;;3.92;1.52;;;;;;;;;;5155172;27;20031;-60
2022/08/24 10:39:56;;;;;;;3.38;1.60;;;;;;;;;;5155676;27;20113;-60
2022/08/24 10:45:27;;;;;;;3.10;1.65;;;;;;;;;;5155628;27;20033;-60
2022/08/24 10:47:53;;;;;;;1.88;1.40;;;;;;;;;;5155468;27;20023;-60
2022/08/24 10:50:26;;;;;;;3.67;1.98;;;;;;;;;;5155770;27;20033;-60
2022/08/24 10:53:01;;;;;;;1.92;1.42;;;;;;;;;;5156160;27;20023;-58
2022/08/24 10:55:31;;;;;;;1.92;1.15;;;;;;;;;;5155669;27;20364;-59
2022/08/24 10:57:57;;;;;;;;;;;;;;;;;;5156458;27;20023;-59
2022/08/24 11:00:26;;;;;;;2.45;1.48;;;;;;;;;;5155696;27;19913;-59
2022/08/24 11:03:04;;;;;;;2.15;1.33;;;;;;;;;;5155280;27;20027;-59
2022/08/24 11:05:34;;;;;;;2.08;1.40;;;;;;;;;;5155659;27;20461;-59
2022/08/24 11:08:03;;;;;;;2.45;1.70;;;;;;;;;;5155613;27;20051;-59
2022/08/24 11:10:31;;;;;;;3.10;1.73;;;;;;;;;;5155263;27;20011;-59
2022/08/24 11:13:14;;;;;;;1.77;1.33;;;;;;;;;;5155255;27;20460;-59
2022/08/24 11:15:46;;;;;;;1.70;1.00;;;;;;;;;;5155430;27;20018;-59
2022/08/24 11:18:12;;;;;;;2.22;1.48;;;;;;;;;;5155802;27;20444;-59
2022/08/24 11:20:43;;;;;;;4.22;1.80;;;;;;;;;;5155410;27;20019;-59
2022/08/24 11:23:09;;;;;;;;;;;;;;;;;;5156118;27;20050;-59
2022/08/24 11:25:36;;;;;;;2.05;1.45;;;;;;;;;;5155690;27;20329;-59
2022/08/24 11:28:09;;;;;;;1.70;1.02;;;;;;;;;;5156153;27;20118;-59
2022/08/24 11:30:39;;;;;;;1.92;1.10;;;;;;;;;;5155266;27;20019;-59
2022/08/24 11:33:06;;;;;;;2.13;0.98;;;;;;;;;;5155413;27;20122;-59
2022/08/24 11:35:32;;;;;;;2.50;1.67;;;;;;;;;;5155248;27;20029;-59
2022/08/24 11:38:29;;;;;;;1.50;0.77;;;;;;;;;;5155608;27;20018;-59
2022/08/24 11:40:58;;;;;;;1.67;1.00;;;;;;;;;;5142426;27;20039;-59
2022/08/24 11:43:30;;;;;;;1.88;1.00;;;;;;;;;;5155353;27;20026;-59
2022/08/24 11:46:02;;;;;;;1.83;1.20;;;;;;;;;;5154910;27;20464;-59
2022/08/24 11:48:40;;;;;;;3.10;1.02;;;;;;;;;;5155448;27;20412;-59
2022/08/24 11:51:45;;;;;;;2.25;1.33;;;;;;;;;;5155294;27;20054;-59
2022/08/24 11:54:23;;;;;;;2.17;1.30;;;;;;;;;;5090998;28;20032;-59
2022/08/24 11:56:58;;;;;;;1.80;1.10;;;;;;;;;;5091539;28;20410;-59
2022/08/24 11:59:50;;;;;;;2.63;1.27;;;;;;;;;;5130483;27;20038;-59
2022/08/24 12:02:23;;;;;;;1.98;1.02;;;;;;;;;;5130466;27;20037;-59
2022/08/24 12:04:54;;;;;;;2.05;1.38;;;;;;;;;;5155387;27;20447;-59
2022/08/24 12:07:26;;;;;;;2.10;1.40;;;;;;;;;;5155379;27;20353;-59
2022/08/24 12:10:11;;;;;;;2.58;1.50;;;;;;;;;;5155405;27;20026;-59
2022/08/24 12:12:44;;;;;;;2.00;1.10;;;;;;;;;;5155276;27;20058;-59
2022/08/24 12:15:12;;;;;;;2.17;1.65;;;;;;;;;;5158839;27;20030;-59
2022/08/24 12:17:41;;;;;;;2.33;1.05;;;;;;;;;;5158996;27;20094;-59
2022/08/24 12:20:13;;;;;;;2.70;1.15;;;;;;;;;;5158749;27;20047;-59
2022/08/24 12:22:40;;;;;;;2.10;1.38;;;;;;;;;;5159230;27;20381;-59
2022/08/24 12:26:00;;;;;;;1.77;1.13;;;;;;;;;;5158852;27;20022;-59
2022/08/24 12:27:53;;;;;;;1.95;1.23;;;;;;;;;;5158349;27;20110;-59
2022/08/24 12:30:19;;;;;;;1.75;1.10;;;;;;;;;;5158504;27;20076;-60
2022/08/24 12:32:48;;;;;;;2.08;1.10;;;;;;;;;;5158690;27;20034;-60
2022/08/24 12:35:18;;;;;;;1.70;0.82;;;;;;;;;;5158691;27;20082;-60
2022/08/24 12:37:50;;;;;;;2.25;0.98;;;;;;;;;;5158556;27;20467;-60
2022/08/24 12:40:35;;;;;;;2.33;1.27;;;;;;;;;;5158238;27;20034;-60
2022/08/24 12:43:07;;;;;;;1.75;0.88;;;;;;;;;;5158156;27;20026;-60
2022/08/24 12:45:34;;;;;;;2.47;1.15;;;;;;;;;;5158916;27;20058;-60
2022/08/24 12:48:00;;;;;;;2.03;0.95;;;;;;;;;;5158067;27;20364;-60
2022/08/24 12:50:45;;;;;;;1.75;0.95;;;;;;;;;;5158029;27;20066;-60
2022/08/24 12:53:23;;;;;;;1.58;0.88;;;;;;;;;;5157966;27;20042;-60
2022/08/24 12:55:49;;;;;;;4.75;1.23;;;;;;;;;;5157389;27;20460;-60
2022/08/24 12:58:34;;;;;;;2.25;1.17;;;;;;;;;;5157628;27;20019;-60
2022/08/24 13:01:03;;;;;;;2.85;1.35;;;;;;;;;;5158107;27;20030;-60
2022/08/24 13:03:37;;;;;;;2.78;1.13;;;;;;;;;;5158346;27;20026;-60
2022/08/24 13:06:07;;;;;;;1.70;0.77;;;;;;;;;;5158010;27;20087;-60
2022/08/24 13:08:37;;;;;;;2.20;1.17;;;;;;;;;;5157714;27;20023;-60
2022/08/24 13:11:05;;;;;;;1.38;0.82;;;;;;;;;;5157711;27;20035;-60
2022/08/24 13:13:46;;;;;;;1.48;0.80;;;;;;;;;;5157692;27;20027;-60
2022/08/24 13:16:32;;;;;;;3.03;1.10;;;;;;;;;;5157563;27;20060;-60
2022/08/24 13:19:11;;;;;;;1.98;0.90;;;;;;;;;;5157485;27;20042;-60
2022/08/24 13:21:39;;;;;;;1.00;0.68;;;;;;;;;;5157522;27;20026;-60
2022/08/24 13:24:24;;;;;;;1.88;1.00;;;;;;;;;;5157923;27;20061;-60
2022/08/24 13:26:50;;;;;;;1.27;0.80;;;;;;;;;;5157236;27;20022;-60
2022/08/24 13:29:16;;;;;;;2.05;0.88;;;;;;;;;;5157378;27;20099;-60
2022/08/24 13:31:49;;;;;;;2.60;1.00;;;;;;;;;;5157167;27;20079;-60
2022/08/24 13:34:16;;;;;;;2.10;1.20;;;;;;;;;;5157111;27;20091;-60
2022/08/24 13:36:43;;;;;;;2.00;1.10;;;;;;;;;;5157658;27;20022;-60
2022/08/24 13:39:27;;;;;;;2.45;0.73;;;;;;;;;;5157074;27;20019;-60
2022/08/24 13:42:29;;;;;;;1.80;1.00;;;;;;;;;;5156995;27;20037;-60
2022/08/24 13:45:04;;;;;;;1.77;1.08;;;;;;;;;;5093259;28;20035;-60
2022/08/24 13:47:46;;;;;;;2.35;1.00;;;;;;;;;;5147973;27;20066;-60
2022/08/24 13:50:29;;;;;;;1.55;0.70;;;;;;;;;;5157151;27;20386;-61
2022/08/24 13:52:54;;;;;;;1.50;0.85;;;;;;;;;;5157085;27;20037;-60
2022/08/24 13:55:28;;;;;;;3.47;1.38;;;;;;;;;;5156838;27;20019;-60
2022/08/24 13:58:12;;;;;;;2.55;0.80;;;;;;;;;;5157372;27;20027;-60
2022/08/24 14:00:47;;;;;;;1.67;0.88;;;;;;;;;;5156652;27;20025;-60
2022/08/24 14:03:20;;;;;;;1.73;0.85;;;;;;;;;;5156659;27;20037;-60
2022/08/24 14:05:52;;;;;;;2.33;1.20;;;;;;;;;;5157164;27;20436;-60
2022/08/24 14:08:29;;;;;;;2.65;1.35;;;;;;;;;;5156379;27;20025;-60
2022/08/24 14:11:04;;;;;;;1.85;1.20;;;;;;;;;;5156491;27;20345;-60
2022/08/24 14:13:50;;;;;;;2.08;1.13;;;;;;;;;;5156703;27;20083;-60
2022/08/24 14:19:32;;;;;;;1.45;0.80;;;;;;;;;;5156138;27;20083;-60
2022/08/24 14:22:01;;;;;;;1.98;1.00;;;;;;;;;;5156897;27;20118;-60
2022/08/24 14:24:35;;;;;;;2.85;1.02;;;;;;;;;;5156324;27;20471;-60
2022/08/24 14:27:07;;;;;;;1.92;0.98;;;;;;;;;;5156569;27;20046;-60
2022/08/24 14:29:39;;;;;;;2.55;0.90;;;;;;;;;;5156489;27;20377;-60
2022/08/24 14:32:05;;;;;;;2.17;1.15;;;;;;;;;;5156411;27;20019;-60
2022/08/24 14:34:49;;;;;;;1.65;1.00;;;;;;;;;;5156338;27;20043;-60
2022/08/24 14:37:33;;;;;;;2.13;1.08;;;;;;;;;;5154964;27;20034;-60
2022/08/24 14:40:03;;;;;;;2.58;1.27;;;;;;;;;;5156198;27;20030;-60
2022/08/24 14:42:36;;;;;;;1.40;0.93;;;;;;;;;;5156340;27;20030;-60
2022/08/24 14:45:05;;;;;;;1.77;1.02;;;;;;;;;;5156484;27;20031;-60
2022/08/24 14:47:49;;;;;;;2.13;1.02;;;;;;;;;;5155850;27;20019;-60
2022/08/24 14:50:19;;;;;;;1.60;0.77;;;;;;;;;;5155451;27;20387;-60
2022/08/24 14:52:48;;;;;;;2.72;1.33;;;;;;;;;;5156341;27;20018;-60
2022/08/24 14:55:23;;;;;;;2.13;1.23;;;;;;;;;;5155807;27;20027;-60
2022/08/24 14:58:08;;;;;;;1.30;0.70;;;;;;;;;;5155754;27;20161;-61
2022/08/24 15:00:48;;;;;;;3.25;1.50;;;;;;;;;;5156227;27;20026;-60
2022/08/24 15:03:20;;;;;;;2.25;1.10;;;;;;;;;;5155781;27;20106;-60
2022/08/24 15:05:51;;;;;;;2.35;1.40;;;;;;;;;;5155575;27;20460;-60
2022/08/24 15:08:41;;;;;;;1.90;1.23;;;;;;;;;;5156180;27;20099;-60
2022/08/24 15:11:17;;;;;;;2.33;1.17;;;;;;;;;;5156403;27;20101;-60
2022/08/24 15:13:48;;;;;;;2.20;1.20;;;;;;;;;;5155982;27;20031;-60
2022/08/24 15:16:33;;;;;;;2.20;1.48;;;;;;;;;;5155744;27;20041;-61